sensor_id;sensor_type;location;lat;lon;timestamp;temperature;humidity
33741;DHT22;20065;48.380;10.892;2023-07-24T00:00:23;21.50;99.90
33741;DHT22;20065;48.380;10.892;2023-07-24T00:03:09;21.50;99.90
33741;DHT22;20065;48.380;10.892;2023-07-24T00:06:01;21.40;99.90
33741;DHT22;20065;48.380;10.892;2023-07-24T00:08:47;21.50;99.90
33741;DHT22;20065;48.380;10.892;2023-07-24T00:11:34;21.40;99.90
33741;DHT22;20065;48.380;10.892;2023-07-24T00:14:20;21.50;99.90
33741;DHT22;20065;48.380;10.892;2023-07-24T00:17:06;21.40;99.90
33741;DHT22;20065;48.380;10.892;2023-07-24T00:19:53;21.40;99.90
33741;DHT22;20065;48.380;10.892;2023-07-24T00:22:39;21.40;99.90
33741;DHT22;20065;48.380;10.892;2023-07-24T00:25:26;21.40;99.90
33741;DHT22;20065;48.380;10.892;2023-07-24T00:28:12;21.40;99.90
33741;DHT22;20065;48.380;10.892;2023-07-24T00:30:59;21.40;99.90
33741;DHT22;20065;48.380;10.892;2023-07-24T00:33:45;21.50;99.90
33741;DHT22;20065;48.380;10.892;2023-07-24T00:36:31;21.60;99.90
33741;DHT22;20065;48.380;10.892;2023-07-24T00:39:17;21.60;99.90
33741;DHT22;20065;48.380;10.892;2023-07-24T00:42:04;21.60;99.90
33741;DHT22;20065;48.380;10.892;2023-07-24T00:44:53;21.60;99.90
33741;DHT22;20065;48.380;10.892;2023-07-24T00:47:40;21.70;99.90
33741;DHT22;20065;48.380;10.892;2023-07-24T00:50:27;21.70;99.90
33741;DHT22;20065;48.380;10.892;2023-07-24T00:53:15;21.70;99.90
33741;DHT22;20065;48.380;10.892;2023-07-24T00:56:03;21.60;99.90
33741;DHT22;20065;48.380;10.892;2023-07-24T00:58:49;21.70;99.90
33741;DHT22;20065;48.380;10.892;2023-07-24T01:01:39;21.70;99.90
33741;DHT22;20065;48.380;10.892;2023-07-24T01:04:27;21.70;99.90
33741;DHT22;20065;48.380;10.892;2023-07-24T01:07:13;21.70;99.90
33741;DHT22;20065;48.380;10.892;2023-07-24T01:10:03;21.70;99.90
33741;DHT22;20065;48.380;10.892;2023-07-24T01:13:15;21.60;99.90
33741;DHT22;20065;48.380;10.892;2023-07-24T01:16:10;21.60;99.90
33741;DHT22;20065;48.380;10.892;2023-07-24T01:19:01;21.50;99.90
33741;DHT22;20065;48.380;10.892;2023-07-24T01:22:10;21.40;99.90
33741;DHT22;20065;48.380;10.892;2023-07-24T01:25:28;21.50;99.90
33741;DHT22;20065;48.380;10.892;2023-07-24T01:28:17;21.50;99.90
33741;DHT22;20065;48.380;10.892;2023-07-24T01:31:03;21.40;99.90
33741;DHT22;20065;48.380;10.892;2023-07-24T01:33:49;21.40;99.90
33741;DHT22;20065;48.380;10.892;2023-07-24T01:36:40;21.40;99.90
33741;DHT22;20065;48.380;10.892;2023-07-24T01:39:27;21.40;99.90
33741;DHT22;20065;48.380;10.892;2023-07-24T01:42:13;21.20;99.90
33741;DHT22;20065;48.380;10.892;2023-07-24T01:45:00;21.30;99.90
33741;DHT22;20065;48.380;10.892;2023-07-24T01:47:47;21.40;99.90
33741;DHT22;20065;48.380;10.892;2023-07-24T01:50:34;21.40;99.90
33741;DHT22;20065;48.380;10.892;2023-07-24T01:53:20;21.00;99.90
33741;DHT22;20065;48.380;10.892;2023-07-24T01:56:07;20.70;99.90
33741;DHT22;20065;48.380;10.892;2023-07-24T01:58:53;20.30;99.90
33741;DHT22;20065;48.380;10.892;2023-07-24T02:01:39;20.00;99.90
33741;DHT22;20065;48.380;10.892;2023-07-24T02:04:25;19.90;99.90
33741;DHT22;20065;48.380;10.892;2023-07-24T02:07:11;20.20;99.90
33741;DHT22;20065;48.380;10.892;2023-07-24T02:09:57;20.30;99.90
33741;DHT22;20065;48.380;10.892;2023-07-24T02:12:44;20.20;99.90
33741;DHT22;20065;48.380;10.892;2023-07-24T02:15:33;20.30;99.90
33741;DHT22;20065;48.380;10.892;2023-07-24T02:18:45;20.30;99.90
33741;DHT22;20065;48.380;10.892;2023-07-24T02:21:31;20.30;99.90
33741;DHT22;20065;48.380;10.892;2023-07-24T02:24:17;20.40;99.90
33741;DHT22;20065;48.380;10.892;2023-07-24T02:27:05;20.50;99.90
33741;DHT22;20065;48.380;10.892;2023-07-24T02:29:51;20.60;99.90
33741;DHT22;20065;48.380;10.892;2023-07-24T02:32:37;20.60;99.90
33741;DHT22;20065;48.380;10.892;2023-07-24T02:35:24;20.50;99.90
33741;DHT22;20065;48.380;10.892;2023-07-24T02:38:10;20.30;99.90
33741;DHT22;20065;48.380;10.892;2023-07-24T02:40:58;19.70;99.90
33741;DHT22;20065;48.380;10.892;2023-07-24T02:43:44;19.20;99.90
33741;DHT22;20065;48.380;10.892;2023-07-24T02:46:30;18.50;99.90
33741;DHT22;20065;48.380;10.892;2023-07-24T02:49:17;18.20;99.90
33741;DHT22;20065;48.380;10.892;2023-07-24T02:52:04;18.10;99.90
33741;DHT22;20065;48.380;10.892;2023-07-24T02:54:50;18.10;99.90
33741;DHT22;20065;48.380;10.892;2023-07-24T02:57:36;18.00;99.90
33741;DHT22;20065;48.380;10.892;2023-07-24T03:00:22;18.20;99.90
33741;DHT22;20065;48.380;10.892;2023-07-24T03:03:09;18.50;99.90
33741;DHT22;20065;48.380;10.892;2023-07-24T03:05:55;18.80;99.90
33741;DHT22;20065;48.380;10.892;2023-07-24T03:08:41;18.90;99.90
33741;DHT22;20065;48.380;10.892;2023-07-24T03:11:27;18.90;99.90
33741;DHT22;20065;48.380;10.892;2023-07-24T03:14:13;18.90;99.90
33741;DHT22;20065;48.380;10.892;2023-07-24T03:17:00;19.00;99.90
33741;DHT22;20065;48.380;10.892;2023-07-24T03:19:48;19.10;99.90
33741;DHT22;20065;48.380;10.892;2023-07-24T03:22:34;19.20;99.90
33741;DHT22;20065;48.380;10.892;2023-07-24T03:25:21;19.30;99.90
33741;DHT22;20065;48.380;10.892;2023-07-24T03:28:07;19.40;99.90
33741;DHT22;20065;48.380;10.892;2023-07-24T03:30:54;19.50;99.90
33741;DHT22;20065;48.380;10.892;2023-07-24T03:33:40;19.40;99.90
33741;DHT22;20065;48.380;10.892;2023-07-24T03:36:26;19.00;99.90
33741;DHT22;20065;48.380;10.892;2023-07-24T03:39:13;19.30;99.90
33741;DHT22;20065;48.380;10.892;2023-07-24T03:42:03;19.40;99.90
33741;DHT22;20065;48.380;10.892;2023-07-24T03:44:50;19.40;99.90
33741;DHT22;20065;48.380;10.892;2023-07-24T03:47:36;19.40;99.90
33741;DHT22;20065;48.380;10.892;2023-07-24T03:50:22;19.20;99.90
33741;DHT22;20065;48.380;10.892;2023-07-24T03:53:08;19.10;99.90
33741;DHT22;20065;48.380;10.892;2023-07-24T03:55:54;19.00;99.90
33741;DHT22;20065;48.380;10.892;2023-07-24T03:58:41;19.00;99.90
33741;DHT22;20065;48.380;10.892;2023-07-24T04:01:27;18.90;99.90
33741;DHT22;20065;48.380;10.892;2023-07-24T04:04:13;19.00;99.90
33741;DHT22;20065;48.380;10.892;2023-07-24T04:07:00;19.10;99.90
33741;DHT22;20065;48.380;10.892;2023-07-24T04:09:46;19.20;99.90
33741;DHT22;20065;48.380;10.892;2023-07-24T04:12:32;19.40;99.90
33741;DHT22;20065;48.380;10.892;2023-07-24T04:15:18;19.60;99.90
33741;DHT22;20065;48.380;10.892;2023-07-24T04:18:04;19.70;99.90
33741;DHT22;20065;48.380;10.892;2023-07-24T04:20:51;19.70;99.90
33741;DHT22;20065;48.380;10.892;2023-07-24T04:23:37;19.70;99.90
33741;DHT22;20065;48.380;10.892;2023-07-24T04:26:23;19.70;99.90
33741;DHT22;20065;48.380;10.892;2023-07-24T04:29:09;19.60;99.90
33741;DHT22;20065;48.380;10.892;2023-07-24T04:31:55;19.80;99.90
33741;DHT22;20065;48.380;10.892;2023-07-24T04:34:41;19.70;99.90
33741;DHT22;20065;48.380;10.892;2023-07-24T04:37:27;19.70;99.90
33741;DHT22;20065;48.380;10.892;2023-07-24T04:40:14;19.70;99.90
33741;DHT22;20065;48.380;10.892;2023-07-24T04:43:00;19.60;99.90
33741;DHT22;20065;48.380;10.892;2023-07-24T04:45:46;19.60;99.90
33741;DHT22;20065;48.380;10.892;2023-07-24T04:48:32;19.50;99.90
33741;DHT22;20065;48.380;10.892;2023-07-24T04:51:18;19.40;99.90
33741;DHT22;20065;48.380;10.892;2023-07-24T04:54:05;19.40;99.90
33741;DHT22;20065;48.380;10.892;2023-07-24T04:56:52;19.60;99.90
33741;DHT22;20065;48.380;10.892;2023-07-24T04:59:38;19.70;99.90
33741;DHT22;20065;48.380;10.892;2023-07-24T05:02:25;19.60;99.90
33741;DHT22;20065;48.380;10.892;2023-07-24T05:05:11;19.50;99.90
33741;DHT22;20065;48.380;10.892;2023-07-24T05:07:57;19.40;99.90
33741;DHT22;20065;48.380;10.892;2023-07-24T05:10:43;19.40;99.90
33741;DHT22;20065;48.380;10.892;2023-07-24T05:13:29;19.50;99.90
33741;DHT22;20065;48.380;10.892;2023-07-24T05:16:16;19.40;99.90
33741;DHT22;20065;48.380;10.892;2023-07-24T05:19:02;19.40;99.90
33741;DHT22;20065;48.380;10.892;2023-07-24T05:21:48;19.50;99.90
33741;DHT22;20065;48.380;10.892;2023-07-24T05:24:34;19.50;99.90
33741;DHT22;20065;48.380;10.892;2023-07-24T05:27:20;19.50;99.90
33741;DHT22;20065;48.380;10.892;2023-07-24T05:30:07;19.60;99.90
33741;DHT22;20065;48.380;10.892;2023-07-24T05:32:53;19.30;99.90
33741;DHT22;20065;48.380;10.892;2023-07-24T05:35:39;19.30;99.90
33741;DHT22;20065;48.380;10.892;2023-07-24T05:38:26;19.20;99.90
33741;DHT22;20065;48.380;10.892;2023-07-24T05:41:12;19.00;99.90
33741;DHT22;20065;48.380;10.892;2023-07-24T05:43:59;19.10;99.90
33741;DHT22;20065;48.380;10.892;2023-07-24T05:46:45;19.20;99.90
33741;DHT22;20065;48.380;10.892;2023-07-24T05:49:31;19.20;99.90
33741;DHT22;20065;48.380;10.892;2023-07-24T05:52:17;19.20;99.90
33741;DHT22;20065;48.380;10.892;2023-07-24T05:55:03;19.20;99.90
33741;DHT22;20065;48.380;10.892;2023-07-24T05:57:50;19.20;99.90
33741;DHT22;20065;48.380;10.892;2023-07-24T06:00:36;19.20;99.90
33741;DHT22;20065;48.380;10.892;2023-07-24T06:03:23;19.30;99.90
33741;DHT22;20065;48.380;10.892;2023-07-24T06:06:09;19.50;99.90
33741;DHT22;20065;48.380;10.892;2023-07-24T06:08:55;19.60;99.90
33741;DHT22;20065;48.380;10.892;2023-07-24T06:11:41;19.60;99.90
33741;DHT22;20065;48.380;10.892;2023-07-24T06:14:28;19.60;99.90
33741;DHT22;20065;48.380;10.892;2023-07-24T06:17:14;19.60;99.90
33741;DHT22;20065;48.380;10.892;2023-07-24T06:20:00;19.60;99.90
33741;DHT22;20065;48.380;10.892;2023-07-24T06:22:46;19.60;99.90
33741;DHT22;20065;48.380;10.892;2023-07-24T06:25:33;19.60;99.90
33741;DHT22;20065;48.380;10.892;2023-07-24T06:28:19;19.80;99.90
33741;DHT22;20065;48.380;10.892;2023-07-24T06:31:06;19.90;99.90
33741;DHT22;20065;48.380;10.892;2023-07-24T06:33:52;19.60;99.90
33741;DHT22;20065;48.380;10.892;2023-07-24T06:36:39;19.80;99.90
33741;DHT22;20065;48.380;10.892;2023-07-24T06:39:25;19.70;99.90
33741;DHT22;20065;48.380;10.892;2023-07-24T06:42:11;19.30;99.90
33741;DHT22;20065;48.380;10.892;2023-07-24T06:44:57;18.90;99.90
33741;DHT22;20065;48.380;10.892;2023-07-24T06:47:44;18.50;99.90
33741;DHT22;20065;48.380;10.892;2023-07-24T06:50:30;18.30;99.90
33741;DHT22;20065;48.380;10.892;2023-07-24T06:53:16;18.10;99.90
33741;DHT22;20065;48.380;10.892;2023-07-24T06:56:02;17.90;99.90
33741;DHT22;20065;48.380;10.892;2023-07-24T06:58:48;17.80;99.90
33741;DHT22;20065;48.380;10.892;2023-07-24T07:01:34;17.60;99.90
33741;DHT22;20065;48.380;10.892;2023-07-24T07:04:20;17.60;99.90
33741;DHT22;20065;48.380;10.892;2023-07-24T07:07:07;17.50;99.90
33741;DHT22;20065;48.380;10.892;2023-07-24T07:09:53;17.50;99.90
33741;DHT22;20065;48.380;10.892;2023-07-24T07:12:39;17.60;99.90
33741;DHT22;20065;48.380;10.892;2023-07-24T07:15:25;17.50;99.90
33741;DHT22;20065;48.380;10.892;2023-07-24T07:18:11;17.50;99.90
33741;DHT22;20065;48.380;10.892;2023-07-24T07:20:58;17.50;99.90
33741;DHT22;20065;48.380;10.892;2023-07-24T07:23:44;17.40;99.90
33741;DHT22;20065;48.380;10.892;2023-07-24T07:26:30;17.30;99.90
33741;DHT22;20065;48.380;10.892;2023-07-24T07:29:16;17.40;99.90
33741;DHT22;20065;48.380;10.892;2023-07-24T07:32:02;17.30;99.90
33741;DHT22;20065;48.380;10.892;2023-07-24T07:34:49;17.30;99.90
33741;DHT22;20065;48.380;10.892;2023-07-24T07:37:35;17.40;99.90
33741;DHT22;20065;48.380;10.892;2023-07-24T07:40:21;17.40;99.90
33741;DHT22;20065;48.380;10.892;2023-07-24T07:43:09;17.60;99.90
33741;DHT22;20065;48.380;10.892;2023-07-24T07:45:55;17.80;99.90
33741;DHT22;20065;48.380;10.892;2023-07-24T07:48:42;17.80;99.90
33741;DHT22;20065;48.380;10.892;2023-07-24T07:51:28;17.90;99.90
33741;DHT22;20065;48.380;10.892;2023-07-24T07:54:15;17.90;99.90
33741;DHT22;20065;48.380;10.892;2023-07-24T07:57:02;17.90;99.90
33741;DHT22;20065;48.380;10.892;2023-07-24T07:59:49;17.90;99.90
33741;DHT22;20065;48.380;10.892;2023-07-24T08:02:35;17.80;99.90
33741;DHT22;20065;48.380;10.892;2023-07-24T08:05:25;17.80;99.90
33741;DHT22;20065;48.380;10.892;2023-07-24T08:08:11;17.90;99.90
33741;DHT22;20065;48.380;10.892;2023-07-24T08:10:58;18.10;99.90
33741;DHT22;20065;48.380;10.892;2023-07-24T08:13:47;18.10;99.90
33741;DHT22;20065;48.380;10.892;2023-07-24T08:16:33;18.40;99.90
33741;DHT22;20065;48.380;10.892;2023-07-24T08:19:19;18.30;99.90
33741;DHT22;20065;48.380;10.892;2023-07-24T08:22:06;18.40;99.90
33741;DHT22;20065;48.380;10.892;2023-07-24T08:24:52;18.40;99.90
33741;DHT22;20065;48.380;10.892;2023-07-24T08:27:38;18.60;99.90
33741;DHT22;20065;48.380;10.892;2023-07-24T08:30:24;18.80;99.90
33741;DHT22;20065;48.380;10.892;2023-07-24T08:33:11;18.70;99.90
33741;DHT22;20065;48.380;10.892;2023-07-24T08:36:01;18.70;99.90
33741;DHT22;20065;48.380;10.892;2023-07-24T08:38:47;18.70;99.90
33741;DHT22;20065;48.380;10.892;2023-07-24T08:41:34;18.60;99.90
33741;DHT22;20065;48.380;10.892;2023-07-24T08:44:21;18.90;99.90
33741;DHT22;20065;48.380;10.892;2023-07-24T08:47:11;19.00;99.90
33741;DHT22;20065;48.380;10.892;2023-07-24T08:50:00;18.90;99.90
33741;DHT22;20065;48.380;10.892;2023-07-24T08:52:46;18.90;99.90
33741;DHT22;20065;48.380;10.892;2023-07-24T08:55:33;18.70;99.90
33741;DHT22;20065;48.380;10.892;2023-07-24T08:58:20;18.70;99.90
33741;DHT22;20065;48.380;10.892;2023-07-24T09:01:06;18.60;99.90
33741;DHT22;20065;48.380;10.892;2023-07-24T09:03:53;18.60;99.90
33741;DHT22;20065;48.380;10.892;2023-07-24T09:06:40;18.60;99.90
33741;DHT22;20065;48.380;10.892;2023-07-24T09:09:30;18.60;99.90
33741;DHT22;20065;48.380;10.892;2023-07-24T09:12:17;18.70;99.90
33741;DHT22;20065;48.380;10.892;2023-07-24T09:15:04;18.70;99.90
33741;DHT22;20065;48.380;10.892;2023-07-24T09:17:51;18.90;99.90
33741;DHT22;20065;48.380;10.892;2023-07-24T09:20:42;18.90;99.90
33741;DHT22;20065;48.380;10.892;2023-07-24T09:23:29;19.10;99.90
33741;DHT22;20065;48.380;10.892;2023-07-24T09:26:15;19.20;99.90
33741;DHT22;20065;48.380;10.892;2023-07-24T09:29:01;19.10;99.90
33741;DHT22;20065;48.380;10.892;2023-07-24T09:31:48;19.20;99.90
33741;DHT22;20065;48.380;10.892;2023-07-24T09:34:42;19.20;99.90
33741;DHT22;20065;48.380;10.892;2023-07-24T09:37:32;19.30;99.90
33741;DHT22;20065;48.380;10.892;2023-07-24T09:40:18;19.60;99.90
33741;DHT22;20065;48.380;10.892;2023-07-24T09:43:15;19.90;99.90
33741;DHT22;20065;48.380;10.892;2023-07-24T09:46:02;20.10;99.90
33741;DHT22;20065;48.380;10.892;2023-07-24T09:48:49;20.20;99.90
33741;DHT22;20065;48.380;10.892;2023-07-24T09:51:37;20.10;99.90
33741;DHT22;20065;48.380;10.892;2023-07-24T09:54:28;20.10;99.90
33741;DHT22;20065;48.380;10.892;2023-07-24T09:57:17;20.10;99.90
33741;DHT22;20065;48.380;10.892;2023-07-24T10:00:04;20.00;99.90
33741;DHT22;20065;48.380;10.892;2023-07-24T10:02:54;20.10;99.90
33741;DHT22;20065;48.380;10.892;2023-07-24T10:05:41;20.00;99.90
33741;DHT22;20065;48.380;10.892;2023-07-24T10:08:28;19.80;99.90
33741;DHT22;20065;48.380;10.892;2023-07-24T10:11:15;19.80;99.90
33741;DHT22;20065;48.380;10.892;2023-07-24T10:14:01;20.00;99.90
33741;DHT22;20065;48.380;10.892;2023-07-24T10:16:48;20.30;99.90
33741;DHT22;20065;48.380;10.892;2023-07-24T10:19:40;20.40;99.90
33741;DHT22;20065;48.380;10.892;2023-07-24T10:22:29;20.60;99.90
33741;DHT22;20065;48.380;10.892;2023-07-24T10:25:15;20.70;99.90
33741;DHT22;20065;48.380;10.892;2023-07-24T10:28:09;20.70;99.90
33741;DHT22;20065;48.380;10.892;2023-07-24T10:30:58;20.70;99.90
33741;DHT22;20065;48.380;10.892;2023-07-24T10:33:45;20.50;99.90
33741;DHT22;20065;48.380;10.892;2023-07-24T10:36:36;20.80;99.90
33741;DHT22;20065;48.380;10.892;2023-07-24T10:39:22;20.90;99.90
33741;DHT22;20065;48.380;10.892;2023-07-24T10:42:10;20.80;99.90
33741;DHT22;20065;48.380;10.892;2023-07-24T10:45:06;21.20;99.90
33741;DHT22;20065;48.380;10.892;2023-07-24T10:47:55;21.50;99.90
33741;DHT22;20065;48.380;10.892;2023-07-24T10:50:45;21.70;99.90
33741;DHT22;20065;48.380;10.892;2023-07-24T10:53:47;21.80;99.90
33741;DHT22;20065;48.380;10.892;2023-07-24T10:56:33;21.70;99.90
33741;DHT22;20065;48.380;10.892;2023-07-24T10:59:22;21.70;99.90
33741;DHT22;20065;48.380;10.892;2023-07-24T11:02:08;21.50;99.90
33741;DHT22;20065;48.380;10.892;2023-07-24T11:04:59;21.50;99.90
33741;DHT22;20065;48.380;10.892;2023-07-24T11:07:46;21.80;99.90
33741;DHT22;20065;48.380;10.892;2023-07-24T11:10:33;21.60;99.90
33741;DHT22;20065;48.380;10.892;2023-07-24T11:13:26;21.90;99.90
33741;DHT22;20065;48.380;10.892;2023-07-24T11:16:13;22.10;99.90
33741;DHT22;20065;48.380;10.892;2023-07-24T11:18:59;22.00;99.90
33741;DHT22;20065;48.380;10.892;2023-07-24T11:21:45;22.10;99.90
33741;DHT22;20065;48.380;10.892;2023-07-24T11:24:32;22.30;99.90
33741;DHT22;20065;48.380;10.892;2023-07-24T11:27:18;22.50;99.90
33741;DHT22;20065;48.380;10.892;2023-07-24T11:30:05;22.70;99.90
33741;DHT22;20065;48.380;10.892;2023-07-24T11:32:51;22.70;99.90
33741;DHT22;20065;48.380;10.892;2023-07-24T11:35:39;22.90;99.90
33741;DHT22;20065;48.380;10.892;2023-07-24T11:38:26;22.80;99.90
33741;DHT22;20065;48.380;10.892;2023-07-24T11:41:13;22.90;99.90
33741;DHT22;20065;48.380;10.892;2023-07-24T11:43:59;22.90;99.90
33741;DHT22;20065;48.380;10.892;2023-07-24T11:46:46;23.00;99.90
33741;DHT22;20065;48.380;10.892;2023-07-24T11:49:33;22.70;99.90
33741;DHT22;20065;48.380;10.892;2023-07-24T11:52:19;22.50;99.90
33741;DHT22;20065;48.380;10.892;2023-07-24T11:55:06;22.20;99.90
33741;DHT22;20065;48.380;10.892;2023-07-24T11:58:00;22.00;99.90
33741;DHT22;20065;48.380;10.892;2023-07-24T12:00:48;21.80;99.90
33741;DHT22;20065;48.380;10.892;2023-07-24T12:03:35;21.50;99.90
33741;DHT22;20065;48.380;10.892;2023-07-24T12:06:21;21.00;99.90
33741;DHT22;20065;48.380;10.892;2023-07-24T12:09:10;20.60;99.90
33741;DHT22;20065;48.380;10.892;2023-07-24T12:11:58;20.40;99.90
33741;DHT22;20065;48.380;10.892;2023-07-24T12:14:45;20.20;99.90
33741;DHT22;20065;48.380;10.892;2023-07-24T12:17:31;20.10;99.90
33741;DHT22;20065;48.380;10.892;2023-07-24T12:20:17;20.10;99.90
33741;DHT22;20065;48.380;10.892;2023-07-24T12:23:04;20.30;99.90
33741;DHT22;20065;48.380;10.892;2023-07-24T12:25:50;20.40;99.90
33741;DHT22;20065;48.380;10.892;2023-07-24T12:28:36;20.50;99.90
33741;DHT22;20065;48.380;10.892;2023-07-24T12:31:22;20.60;99.90
33741;DHT22;20065;48.380;10.892;2023-07-24T12:34:08;20.50;99.90
33741;DHT22;20065;48.380;10.892;2023-07-24T12:36:54;20.40;99.90
33741;DHT22;20065;48.380;10.892;2023-07-24T12:39:41;20.10;99.90
33741;DHT22;20065;48.380;10.892;2023-07-24T12:42:28;19.90;99.90
33741;DHT22;20065;48.380;10.892;2023-07-24T12:45:14;19.70;99.90
33741;DHT22;20065;48.380;10.892;2023-07-24T12:48:00;19.80;99.90
33741;DHT22;20065;48.380;10.892;2023-07-24T12:50:50;20.10;99.90
33741;DHT22;20065;48.380;10.892;2023-07-24T12:53:37;20.30;99.90
33741;DHT22;20065;48.380;10.892;2023-07-24T12:56:23;20.30;99.90
33741;DHT22;20065;48.380;10.892;2023-07-24T12:59:09;20.50;99.90
33741;DHT22;20065;48.380;10.892;2023-07-24T13:01:56;20.60;99.90
33741;DHT22;20065;48.380;10.892;2023-07-24T13:04:42;20.70;99.90
33741;DHT22;20065;48.380;10.892;2023-07-24T13:07:28;20.80;99.90
33741;DHT22;20065;48.380;10.892;2023-07-24T13:10:15;21.00;99.90
33741;DHT22;20065;48.380;10.892;2023-07-24T13:13:01;21.00;99.90
33741;DHT22;20065;48.380;10.892;2023-07-24T13:15:47;21.00;99.90
33741;DHT22;20065;48.380;10.892;2023-07-24T13:18:34;21.00;99.90
33741;DHT22;20065;48.380;10.892;2023-07-24T13:21:20;21.00;99.90
33741;DHT22;20065;48.380;10.892;2023-07-24T13:24:07;21.00;99.90
33741;DHT22;20065;48.380;10.892;2023-07-24T13:26:53;21.00;99.90
33741;DHT22;20065;48.380;10.892;2023-07-24T13:29:39;21.20;99.90
33741;DHT22;20065;48.380;10.892;2023-07-24T13:32:25;21.20;99.90
33741;DHT22;20065;48.380;10.892;2023-07-24T13:35:12;21.10;99.90
33741;DHT22;20065;48.380;10.892;2023-07-24T13:37:58;21.20;99.90
33741;DHT22;20065;48.380;10.892;2023-07-24T13:40:44;21.30;99.90
33741;DHT22;20065;48.380;10.892;2023-07-24T13:43:32;21.50;99.90
33741;DHT22;20065;48.380;10.892;2023-07-24T13:46:18;21.50;99.90
33741;DHT22;20065;48.380;10.892;2023-07-24T13:49:04;21.70;99.90
33741;DHT22;20065;48.380;10.892;2023-07-24T13:51:50;21.80;99.90
33741;DHT22;20065;48.380;10.892;2023-07-24T13:54:37;21.80;99.90
33741;DHT22;20065;48.380;10.892;2023-07-24T13:57:23;21.90;99.90
33741;DHT22;20065;48.380;10.892;2023-07-24T14:00:09;21.80;99.90
33741;DHT22;20065;48.380;10.892;2023-07-24T14:02:59;21.90;99.90
33741;DHT22;20065;48.380;10.892;2023-07-24T14:05:45;22.00;99.90
33741;DHT22;20065;48.380;10.892;2023-07-24T14:08:31;22.00;99.90
33741;DHT22;20065;48.380;10.892;2023-07-24T14:11:17;22.00;99.90
33741;DHT22;20065;48.380;10.892;2023-07-24T14:14:03;22.10;99.90
33741;DHT22;20065;48.380;10.892;2023-07-24T14:16:49;21.90;99.90
33741;DHT22;20065;48.380;10.892;2023-07-24T14:19:36;21.90;99.90
33741;DHT22;20065;48.380;10.892;2023-07-24T14:22:22;21.80;99.90
33741;DHT22;20065;48.380;10.892;2023-07-24T14:25:08;21.80;99.90
33741;DHT22;20065;48.380;10.892;2023-07-24T14:27:54;21.90;99.90
33741;DHT22;20065;48.380;10.892;2023-07-24T14:30:40;22.20;99.90
33741;DHT22;20065;48.380;10.892;2023-07-24T14:33:26;22.30;99.90
33741;DHT22;20065;48.380;10.892;2023-07-24T14:36:13;22.30;99.90
33741;DHT22;20065;48.380;10.892;2023-07-24T14:39:00;22.20;99.90
33741;DHT22;20065;48.380;10.892;2023-07-24T14:41:46;22.00;99.90
33741;DHT22;20065;48.380;10.892;2023-07-24T14:45:05;21.80;99.90
33741;DHT22;20065;48.380;10.892;2023-07-24T14:47:51;21.70;99.90
33741;DHT22;20065;48.380;10.892;2023-07-24T14:50:37;21.70;99.90
33741;DHT22;20065;48.380;10.892;2023-07-24T14:53:24;21.70;99.90
33741;DHT22;20065;48.380;10.892;2023-07-24T14:56:10;21.70;99.90
33741;DHT22;20065;48.380;10.892;2023-07-24T14:58:56;21.80;99.90
33741;DHT22;20065;48.380;10.892;2023-07-24T15:01:43;21.90;99.90
33741;DHT22;20065;48.380;10.892;2023-07-24T15:04:29;21.80;99.90
33741;DHT22;20065;48.380;10.892;2023-07-24T15:07:15;21.90;99.90
33741;DHT22;20065;48.380;10.892;2023-07-24T15:10:02;22.10;99.90
33741;DHT22;20065;48.380;10.892;2023-07-24T15:12:48;22.20;99.90
33741;DHT22;20065;48.380;10.892;2023-07-24T15:15:35;22.10;99.90
33741;DHT22;20065;48.380;10.892;2023-07-24T15:18:21;22.30;99.90
33741;DHT22;20065;48.380;10.892;2023-07-24T15:21:08;22.30;99.90
33741;DHT22;20065;48.380;10.892;2023-07-24T15:23:55;22.20;99.90
33741;DHT22;20065;48.380;10.892;2023-07-24T15:26:41;22.20;99.90
33741;DHT22;20065;48.380;10.892;2023-07-24T15:29:27;22.00;99.90
33741;DHT22;20065;48.380;10.892;2023-07-24T15:32:13;21.90;99.90
33741;DHT22;20065;48.380;10.892;2023-07-24T15:34:59;21.70;99.90
33741;DHT22;20065;48.380;10.892;2023-07-24T15:37:55;21.70;99.90
33741;DHT22;20065;48.380;10.892;2023-07-24T15:40:42;21.90;99.90
33741;DHT22;20065;48.380;10.892;2023-07-24T15:43:28;22.00;99.90
33741;DHT22;20065;48.380;10.892;2023-07-24T15:46:15;22.00;99.90
33741;DHT22;20065;48.380;10.892;2023-07-24T15:49:01;21.90;99.90
33741;DHT22;20065;48.380;10.892;2023-07-24T15:51:47;22.00;99.90
33741;DHT22;20065;48.380;10.892;2023-07-24T15:54:34;21.80;99.90
33741;DHT22;20065;48.380;10.892;2023-07-24T15:57:20;21.80;99.90
33741;DHT22;20065;48.380;10.892;2023-07-24T16:00:07;21.80;99.90
33741;DHT22;20065;48.380;10.892;2023-07-24T16:02:58;21.80;99.90
33741;DHT22;20065;48.380;10.892;2023-07-24T16:05:44;21.70;99.90
33741;DHT22;20065;48.380;10.892;2023-07-24T16:08:30;21.60;99.90
33741;DHT22;20065;48.380;10.892;2023-07-24T16:11:17;21.40;99.90
33741;DHT22;20065;48.380;10.892;2023-07-24T16:14:03;21.40;99.90
33741;DHT22;20065;48.380;10.892;2023-07-24T16:16:50;21.10;99.90
33741;DHT22;20065;48.380;10.892;2023-07-24T16:19:37;21.30;99.90
33741;DHT22;20065;48.380;10.892;2023-07-24T16:22:24;21.30;99.90
33741;DHT22;20065;48.380;10.892;2023-07-24T16:25:11;21.10;99.90
33741;DHT22;20065;48.380;10.892;2023-07-24T16:27:57;21.00;99.90
33741;DHT22;20065;48.380;10.892;2023-07-24T16:30:43;21.00;99.90
33741;DHT22;20065;48.380;10.892;2023-07-24T16:33:29;21.00;99.90
33741;DHT22;20065;48.380;10.892;2023-07-24T16:36:16;21.00;99.90
33741;DHT22;20065;48.380;10.892;2023-07-24T16:39:02;21.10;99.90
33741;DHT22;20065;48.380;10.892;2023-07-24T16:41:50;21.00;99.90
33741;DHT22;20065;48.380;10.892;2023-07-24T16:44:36;21.00;99.90
33741;DHT22;20065;48.380;10.892;2023-07-24T16:47:22;21.00;99.90
33741;DHT22;20065;48.380;10.892;2023-07-24T16:50:10;21.10;99.90
33741;DHT22;20065;48.380;10.892;2023-07-24T16:52:59;21.10;99.90
33741;DHT22;20065;48.380;10.892;2023-07-24T16:55:45;21.20;99.90
33741;DHT22;20065;48.380;10.892;2023-07-24T16:58:32;21.30;99.90
33741;DHT22;20065;48.380;10.892;2023-07-24T17:01:18;21.20;99.90
33741;DHT22;20065;48.380;10.892;2023-07-24T17:04:05;21.40;99.90
33741;DHT22;20065;48.380;10.892;2023-07-24T17:06:51;21.40;99.90
33741;DHT22;20065;48.380;10.892;2023-07-24T17:09:38;21.20;99.90
33741;DHT22;20065;48.380;10.892;2023-07-24T17:12:24;21.20;99.90
33741;DHT22;20065;48.380;10.892;2023-07-24T17:15:10;21.10;99.90
33741;DHT22;20065;48.380;10.892;2023-07-24T17:17:56;20.90;99.90